Staves, Arkansas
Current Conditions -  °F | °C
As of 11:53 PM on Wednesday 28 Jan 2015 (Local Time) from KPBF Reporting Station
Clear Clear  
Wind Chill: 59°   Ceiling: Unl
Heat Index: 59°   Visibility: 10mi
Dew Point: 40°   Wind: 20mph
Humidity: 49%   Direction: 200°SSW
Pressure: 30.05"   Gusts: 25mph
Location:  33.947°N, 92.1633°W
Report Text: KPBF 290553Z AUTO 20017G22KT 10SM CLR 15/04 A3005 RMK AO2 SLP176 T01500044 10156 20111 401780017 56005
Loading
Personal Weather Stations






























Interactive Weather Map New forecast layout! Learn more

10-Day Weather Forecast

Advertisements
Track Severe Weather on mobile